Time;durP1;ratioP1;P1;durP2;ratioP2;P2;SDS_P1;SDS_P2;PMS_P1;PMS_P2;Temp;Humidity;BMP_temperature;BMP_pressure;BME280_temperature;BME280_humidity;BME280_pressure;Samples;Min_cycle;Max_cycle;Signal;HPM_P1;HPM_P2
2022/08/07 00:01:44;;;;;;;1.10;0.77;;;;;;;9.64;100.00;101084.44;7394774;19;20061;-58
2022/08/07 00:04:10;;;;;;;0.60;0.60;;;;;;;9.66;100.00;101076.44;7395499;19;20017;-58
2022/08/07 00:06:37;;;;;;;1.38;0.47;;;;;;;9.69;100.00;101081.13;7397008;19;20010;-57
2022/08/07 00:09:03;;;;;;;1.90;1.30;;;;;;;9.68;100.00;101079.59;7399007;19;20045;-58
2022/08/07 00:11:30;;;;;;;2.38;0.95;;;;;;;9.64;100.00;101090.00;7396588;19;20074;-58
2022/08/07 00:13:56;;;;;;;1.77;1.38;;;;;;;9.59;100.00;101088.56;7394143;19;20027;-57
2022/08/07 00:16:22;;;;;;;1.08;0.30;;;;;;;9.52;100.00;101079.63;7396413;19;20376;-57
2022/08/07 00:18:48;;;;;;;1.63;0.77;;;;;;;9.50;100.00;101074.50;7394805;19;20482;-57
2022/08/07 00:21:15;;;;;;;2.47;0.73;;;;;;;9.50;100.00;101076.50;7394352;19;20014;-57
2022/08/07 00:23:41;;;;;;;1.20;0.63;;;;;;;9.49;100.00;101072.16;7395281;19;20023;-57
2022/08/07 00:26:10;;;;;;;0.70;0.70;;;;;;;9.50;100.00;101080.09;7395554;19;20014;-57
2022/08/07 00:28:36;;;;;;;2.00;0.88;;;;;;;9.46;100.00;101073.06;7394709;19;20011;-57
2022/08/07 00:31:06;;;;;;;1.17;0.90;;;;;;;9.42;100.00;101073.13;7394269;19;20021;-58
2022/08/07 00:33:37;;;;;;;2.33;1.50;;;;;;;9.42;100.00;101078.69;7391922;19;20436;-57
2022/08/07 00:36:04;;;;;;;4.07;1.20;;;;;;;9.39;100.00;101073.22;7395315;19;20476;-58
2022/08/07 00:38:31;;;;;;;1.30;0.88;;;;;;;9.32;100.00;101074.19;7394214;19;20244;-58
2022/08/07 00:40:58;;;;;;;2.20;0.57;;;;;;;9.32;100.00;101068.63;7393820;19;20017;-58
2022/08/07 00:43:25;;;;;;;1.17;1.17;;;;;;;9.26;100.00;101075.16;7392919;19;20066;-57
2022/08/07 00:45:51;;;;;;;1.55;0.55;;;;;;;9.20;100.00;101074.13;7394048;19;20026;-57
2022/08/07 00:48:17;;;;;;;2.00;0.73;;;;;;;9.16;100.00;101071.44;7392750;19;20006;-58
2022/08/07 00:50:43;;;;;;;3.13;0.93;;;;;;;9.11;100.00;101067.22;7392174;19;20467;-58
2022/08/07 00:53:09;;;;;;;2.92;1.08;;;;;;;9.08;100.00;101067.28;7392027;19;20480;-57
2022/08/07 00:55:36;;;;;;;5.15;1.73;;;;;;;9.04;100.00;101064.59;7392598;19;20355;-57
2022/08/07 00:58:02;;;;;;;0.80;0.50;;;;;;;9.02;100.00;101057.91;7397717;19;20018;-57
2022/08/07 01:00:29;;;;;;;3.15;1.27;;;;;;;9.03;100.00;101059.50;7393165;19;20025;-57
2022/08/07 01:02:55;;;;;;;5.20;0.90;;;;;;;9.00;100.00;101065.91;7393316;19;20015;-57
2022/08/07 01:05:22;;;;;;;0.93;0.88;;;;;;;8.97;100.00;101062.00;7392859;19;20427;-57
2022/08/07 01:07:48;;;;;;;1.85;0.88;;;;;;;8.95;100.00;101055.31;7396142;19;20041;-57
2022/08/07 01:10:16;;;;;;;0.75;0.50;;;;;;;8.92;100.00;101051.41;7390608;19;20011;-57
2022/08/07 01:12:42;;;;;;;2.38;0.85;;;;;;;8.91;100.00;101049.84;7395083;19;20046;-57
2022/08/07 01:15:09;;;;;;;2.75;0.88;;;;;;;8.90;100.00;101059.38;7391213;19;20021;-57
2022/08/07 01:17:36;;;;;;;1.42;0.68;;;;;;;8.93;100.00;101057.75;7395880;19;20019;-57
2022/08/07 01:20:12;;;;;;;3.60;0.55;;;;;;;8.90;100.00;101058.63;7390958;19;20045;-57
2022/08/07 01:22:40;;;;;;;6.75;0.60;;;;;;;8.84;100.00;101061.13;7390343;19;20017;-57
2022/08/07 01:25:09;;;;;;;0.38;0.38;;;;;;;8.81;100.00;101053.69;7391526;19;20018;-57
2022/08/07 01:27:36;;;;;;;1.05;0.75;;;;;;;8.78;100.00;101049.00;7394609;19;20010;-57
2022/08/07 01:30:04;;;;;;;0.60;0.60;;;;;;;8.78;100.00;101057.31;7389106;19;20014;-57
2022/08/07 01:32:31;;;;;;;0.73;0.73;;;;;;;8.76;100.00;101051.41;7391060;19;20018;-57
2022/08/07 01:35:00;;;;;;;0.85;0.70;;;;;;;8.73;100.00;101049.50;7390305;19;20007;-57
2022/08/07 01:37:26;;;;;;;0.40;0.40;;;;;;;8.72;100.00;101053.50;7394226;19;20017;-57
2022/08/07 01:39:58;;;;;;;1.20;0.60;;;;;;;8.73;100.00;101049.50;7390565;19;20010;-57
2022/08/07 01:42:30;;;;;;;0.32;0.32;;;;;;;8.66;100.00;101046.91;7394781;19;20017;-57
2022/08/07 01:44:56;;;;;;;3.72;0.90;;;;;;;8.61;100.00;101044.66;7390780;19;20372;-57
2022/08/07 01:47:23;;;;;;;0.85;0.50;;;;;;;8.59;100.00;101047.09;7392813;19;20435;-57
2022/08/07 01:49:50;;;;;;;1.23;0.57;;;;;;;8.58;100.00;101048.28;7388940;19;20014;-57
2022/08/07 01:52:17;;;;;;;0.88;0.82;;;;;;;8.56;100.00;101045.16;7391289;19;20071;-57
2022/08/07 01:54:44;;;;;;;0.30;0.30;;;;;;;8.58;100.00;101053.84;7394947;19;20030;-57
2022/08/07 01:57:19;;;;;;;1.15;0.55;;;;;;;8.55;100.00;101049.16;7391395;19;20018;-57
2022/08/07 01:59:54;;;;;;;0.68;0.43;;;;;;;8.54;100.00;101044.03;7390434;19;20015;-57
2022/08/07 02:02:26;;;;;;;0.40;0.40;;;;;;;8.52;100.00;101041.69;7390194;19;20025;-57
2022/08/07 02:05:01;;;;;;;0.73;0.63;;;;;;;8.51;100.00;101042.13;7389281;19;20429;-57
2022/08/07 02:07:36;;;;;;;1.75;0.55;;;;;;;8.49;100.00;101039.75;7393211;19;20459;-57
2022/08/07 02:10:04;;;;;;;1.17;0.82;;;;;;;8.50;100.00;101035.78;7388656;19;20372;-57
2022/08/07 02:12:39;;;;;;;0.68;0.68;;;;;;;8.45;100.00;101027.19;7393442;19;20010;-57
2022/08/07 02:15:10;;;;;;;0.50;0.50;;;;;;;8.43;100.00;101019.28;7390232;19;20026;-57
2022/08/07 02:17:42;;;;;;;0.45;0.45;;;;;;;8.42;100.00;101023.31;7393209;19;20498;-57
2022/08/07 02:20:10;;;;;;;0.57;0.57;;;;;;;8.39;100.00;101024.16;7390566;19;20109;-57
2022/08/07 02:22:39;;;;;;;4.63;1.13;;;;;;;8.38;100.00;101025.38;7388908;19;20145;-57
2022/08/07 02:25:07;;;;;;;0.35;0.35;;;;;;;8.34;100.00;101022.66;7388255;19;20011;-57
2022/08/07 02:27:36;;;;;;;0.50;0.50;;;;;;;8.36;100.00;101020.25;7392268;19;20471;-57
2022/08/07 02:30:04;;;;;;;1.02;1.02;;;;;;;8.34;100.00;101027.44;7387898;19;20023;-57
2022/08/07 02:32:36;;;;;;;0.77;0.70;;;;;;;8.29;100.00;101020.41;7389077;19;20039;-57
2022/08/07 02:35:07;;;;;;;0.63;0.55;;;;;;;8.28;100.00;101015.28;7389916;19;20018;-57
2022/08/07 02:37:38;;;;;;;0.50;0.50;;;;;;;8.26;100.00;101017.72;7391440;19;20015;-57
2022/08/07 02:40:08;;;;;;;0.43;0.43;;;;;;;8.22;100.00;101014.22;7387410;19;20019;-57
2022/08/07 02:42:35;;;;;;;0.68;0.68;;;;;;;8.21;100.00;101007.09;7393349;19;20010;-57
2022/08/07 02:45:03;;;;;;;0.47;0.47;;;;;;;8.19;100.00;101013.06;7389417;19;20472;-57
2022/08/07 02:47:31;;;;;;;1.23;0.68;;;;;;;8.20;100.00;101014.66;7390863;19;20007;-57
2022/08/07 02:50:07;;;;;;;0.85;0.85;;;;;;;8.20;100.00;101013.88;7386237;19;20010;-57
2022/08/07 02:52:51;;;;;;;2.28;1.08;;;;;;;8.21;100.00;101007.09;7390014;19;20010;-57
2022/08/07 02:55:21;;;;;;;0.50;0.50;;;;;;;8.22;100.00;101008.66;7388375;19;20070;-57
2022/08/07 02:57:50;;;;;;;0.75;0.73;;;;;;;8.20;100.00;101011.09;7391938;19;20006;-57
2022/08/07 03:00:16;;;;;;;0.60;0.60;;;;;;;8.21;100.00;101001.53;7388273;19;20021;-57
2022/08/07 03:02:48;;;;;;;1.15;0.52;;;;;;;8.23;100.00;101004.66;7388421;19;20035;-57
2022/08/07 03:05:16;;;;;;;1.73;0.85;;;;;;;8.21;100.00;101016.19;7388290;19;20026;-57
2022/08/07 03:07:43;;;;;;;1.20;0.63;;;;;;;8.20;100.00;101005.53;7391980;19;20021;-57
2022/08/07 03:10:12;;;;;;;0.45;0.43;;;;;;;8.20;100.00;101008.31;7386985;19;20018;-56
2022/08/07 03:12:39;;;;;;;0.60;0.60;;;;;;;8.21;100.00;101004.31;7393694;19;20021;-57
2022/08/07 03:15:11;;;;;;;1.15;0.98;;;;;;;8.16;100.00;100999.28;7388537;19;20015;-57
2022/08/07 03:17:38;;;;;;;1.38;0.68;;;;;;;8.11;100.00;101002.56;7391490;19;20042;-57
2022/08/07 03:20:07;;;;;;;0.43;0.43;;;;;;;8.07;100.00;100997.13;7387263;19;20020;-57
2022/08/07 03:22:36;;;;;;;0.70;0.70;;;;;;;8.03;100.00;100999.19;7387576;19;20618;-57
2022/08/07 03:25:03;;;;;;;1.38;0.88;;;;;;;7.99;100.00;100987.38;7387959;19;20014;-57
2022/08/07 03:27:39;;;;;;;7.97;1.30;;;;;;;7.96;100.00;101002.13;7391228;19;20019;-57
2022/08/07 03:30:06;;;;;;;3.25;0.98;;;;;;;7.94;100.00;101001.75;7385049;19;20007;-57
2022/08/07 03:32:38;;;;;;;0.38;0.38;;;;;;;7.93;100.00;101002.97;7388677;19;20018;-57
2022/08/07 03:35:07;;;;;;;;;;;;;;;7.88;100.00;101011.03;7387707;19;20037;-57
2022/08/07 03:37:35;;;;;;;1.05;1.05;;;;;;;7.86;100.00;101002.34;7390833;19;19940;-57
2022/08/07 03:40:04;;;;;;;0.80;0.80;;;;;;;7.83;100.00;101009.53;7386642;19;20086;-57
2022/08/07 03:42:33;;;;;;;0.90;0.73;;;;;;;7.80;100.00;101004.03;7391144;19;20086;-57
2022/08/07 03:45:02;;;;;;;0.60;0.60;;;;;;;7.77;100.00;101004.91;7386748;19;20014;-57
2022/08/07 03:47:29;;;;;;;0.90;0.60;;;;;;;7.76;100.00;101014.44;7390435;19;20589;-58
2022/08/07 03:49:57;;;;;;;1.52;0.45;;;;;;;7.72;100.00;101014.50;7386591;19;20025;-56
2022/08/07 03:52:28;;;;;;;0.65;0.52;;;;;;;7.70;100.00;101011.38;7387735;19;20018;-56
2022/08/07 03:54:59;;;;;;;0.90;0.60;;;;;;;7.67;100.00;101012.22;7386396;19;20021;-57
2022/08/07 03:57:28;;;;;;;0.60;0.60;;;;;;;7.66;100.00;101013.47;7388998;19;20412;-57
2022/08/07 03:59:55;;;;;;;0.88;0.80;;;;;;;7.65;100.00;101009.91;7387838;19;20024;-57
2022/08/07 04:02:22;;;;;;;0.30;0.30;;;;;;;7.64;100.00;101005.56;7386318;19;20027;-57
2022/08/07 04:04:50;;;;;;;0.60;0.60;;;;;;;7.67;100.00;101011.47;7386413;19;20031;-57
2022/08/07 04:07:17;;;;;;;1.17;0.40;;;;;;;7.68;100.00;101013.03;7389042;19;20011;-59
2022/08/07 04:09:46;;;;;;;3.83;0.70;;;;;;;7.68;100.00;101007.47;7385497;19;20374;-60
2022/08/07 04:12:13;;;;;;;9.70;0.75;;;;;;;7.69;100.00;101009.06;7390240;19;20014;-60
2022/08/07 04:14:41;;;;;;;0.50;0.50;;;;;;;7.68;100.00;101013.03;7386062;19;20035;-60
2022/08/07 04:17:09;;;;;;;1.02;0.70;;;;;;;7.66;100.00;101005.13;7387703;19;20010;-60
2022/08/07 04:19:39;;;;;;;0.40;0.38;;;;;;;7.70;100.00;101010.59;7386939;19;20074;-60
2022/08/07 04:22:06;;;;;;;0.77;0.73;;;;;;;7.71;100.00;101012.94;7391798;19;20019;-59
2022/08/07 04:24:38;;;;;;;0.95;0.77;;;;;;;7.72;100.00;101008.19;7393296;19;20014;-59
2022/08/07 04:27:05;;;;;;;0.40;0.40;;;;;;;7.74;100.00;101006.56;7395992;19;20498;-60
2022/08/07 04:29:34;;;;;;;0.65;0.63;;;;;;;7.76;100.00;101003.34;7392361;19;20071;-59
2022/08/07 04:32:01;;;;;;;3.60;1.08;;;;;;;7.80;100.00;101006.81;7393384;19;20111;-59
2022/08/07 04:34:28;;;;;;;1.88;1.08;;;;;;;7.84;100.00;101013.09;7393090;19;20010;-60
2022/08/07 04:37:02;;;;;;;0.95;0.63;;;;;;;7.86;100.00;101013.44;7394960;19;20096;-60
2022/08/07 04:39:30;;;;;;;1.05;1.02;;;;;;;7.88;100.00;101011.03;7392619;19;20014;-60
2022/08/07 04:41:56;;;;;;;0.65;0.40;;;;;;;7.91;100.00;101010.16;7394510;19;20471;-60
2022/08/07 04:44:23;;;;;;;2.05;0.50;;;;;;;7.93;100.00;101014.06;7392694;19;20024;-60
2022/08/07 04:47:18;;;;;;;0.30;0.30;;;;;;;8.01;100.00;101006.38;7393101;19;20475;-60
2022/08/07 04:50:09;;;;;;;1.10;0.93;;;;;;;8.11;100.00;101008.13;7390526;19;20011;-60
2022/08/07 04:53:15;;;;;;;0.65;0.65;;;;;;;8.17;100.00;101017.50;7394300;19;20007;-60
2022/08/07 04:56:10;;;;;;;0.60;0.60;;;;;;;8.21;100.00;101023.72;7391447;19;20006;-60
2022/08/07 04:58:49;;;;;;;0.47;0.47;;;;;;;8.24;100.00;101022.88;7392624;19;20022;-60
2022/08/07 05:01:27;;;;;;;0.88;0.88;;;;;;;8.21;100.00;101023.72;7391442;19;20018;-60
2022/08/07 05:04:03;;;;;;;0.55;0.43;;;;;;;8.18;100.00;101024.63;7391691;19;20497;-60
2022/08/07 05:06:48;;;;;;;0.43;0.43;;;;;;;8.18;100.00;101024.63;7392064;19;20022;-60
2022/08/07 05:09:33;;;;;;;0.73;0.63;;;;;;;8.16;100.00;101027.03;7394608;19;20047;-60
2022/08/07 05:12:04;;;;;;;0.52;0.52;;;;;;;8.19;100.00;101023.38;7396125;19;20011;-60
2022/08/07 05:14:37;;;;;;;1.45;0.75;;;;;;;8.20;100.00;101022.97;7391547;19;20007;-60
2022/08/07 05:17:08;;;;;;;0.85;0.35;;;;;;;8.20;100.00;101019.41;7393806;19;20014;-60
2022/08/07 05:19:39;;;;;;;1.23;1.00;;;;;;;8.20;100.00;101027.75;7390801;19;20648;-57
2022/08/07 05:22:08;;;;;;;0.98;0.88;;;;;;;8.23;100.00;101032.41;7392342;19;20018;-57
2022/08/07 05:24:39;;;;;;;0.40;0.40;;;;;;;8.25;100.00;101027.25;7391511;19;20081;-57
2022/08/07 05:27:09;;;;;;;0.65;0.50;;;;;;;8.26;100.00;101031.59;7394141;19;20015;-57
2022/08/07 05:29:38;;;;;;;0.85;0.47;;;;;;;8.27;100.00;101025.59;7390793;19;20025;-57
2022/08/07 05:32:06;;;;;;;0.25;0.25;;;;;;;8.29;100.00;101014.84;7389200;19;20014;-57
2022/08/07 05:34:35;;;;;;;0.40;0.40;;;;;;;8.31;100.00;101018.00;7390059;19;20107;-57
2022/08/07 05:37:02;;;;;;;0.38;0.32;;;;;;;8.33;100.00;101017.56;7392676;19;20011;-57
2022/08/07 05:39:40;;;;;;;0.20;0.20;;;;;;;8.33;100.00;101018.34;7390792;19;20344;-57
2022/08/07 05:42:07;;;;;;;1.48;0.98;;;;;;;8.34;100.00;101017.13;7393688;19;20070;-57
2022/08/07 05:44:37;;;;;;;1.23;0.35;;;;;;;8.38;100.00;101017.81;7390369;19;20121;-57
2022/08/07 05:47:07;;;;;;;0.30;0.20;;;;;;;8.44;100.00;101023.66;7393217;19;20027;-57
2022/08/07 05:49:35;;;;;;;0.60;0.60;;;;;;;8.44;100.00;101020.09;7391306;19;20011;-58
2022/08/07 05:52:03;;;;;;;0.38;0.38;;;;;;;8.48;100.00;101020.78;7390281;19;20047;-57
2022/08/07 05:54:30;;;;;;;0.75;0.73;;;;;;;8.50;100.00;101023.91;7389590;19;20020;-57
2022/08/07 05:56:57;;;;;;;0.95;0.50;;;;;;;8.53;100.00;101018.28;7392587;19;20025;-57
2022/08/07 05:59:25;;;;;;;3.60;1.15;;;;;;;8.55;100.00;101020.59;7391638;19;20471;-57
2022/08/07 06:01:58;;;;;;;0.75;0.60;;;;;;;8.57;100.00;101018.97;7390706;19;20014;-57
2022/08/07 06:04:26;;;;;;;0.65;0.60;;;;;;;8.62;100.00;101020.44;7391016;19;20468;-57
2022/08/07 06:06:53;;;;;;;0.77;0.57;;;;;;;8.66;100.00;101027.47;7391301;19;20577;-58
2022/08/07 06:09:21;;;;;;;0.60;0.60;;;;;;;8.73;100.00;101032.84;7390602;19;20014;-58
2022/08/07 06:11:49;;;;;;;0.75;0.57;;;;;;;8.81;100.00;101028.69;7387562;19;20078;-57
2022/08/07 06:14:18;;;;;;;0.40;0.40;;;;;;;8.85;100.00;101018.28;7386811;19;20029;-57
2022/08/07 06:16:47;;;;;;;0.45;0.45;;;;;;;8.91;100.00;101022.06;7387801;19;20337;-58
2022/08/07 06:19:17;;;;;;;0.43;0.30;;;;;;;8.94;100.00;101015.63;7386887;19;20019;-57
2022/08/07 06:21:45;;;;;;;0.20;0.20;;;;;;;9.01;100.00;101017.44;7389734;19;20038;-57
2022/08/07 06:24:12;;;;;;;0.90;0.90;;;;;;;9.09;100.00;101016.84;7389705;19;20029;-57
2022/08/07 06:26:40;;;;;;;1.05;0.73;;;;;;;9.16;100.00;101016.63;7392078;19;20462;-58
2022/08/07 06:29:08;;;;;;;0.60;0.60;;;;;;;9.26;100.00;101019.56;7388532;19;20014;-58
2022/08/07 06:31:35;;;;;;;0.55;0.55;;;;;;;9.36;100.00;101012.94;7389590;19;20006;-58
2022/08/07 06:34:01;;;;;;;3.17;0.70;;;;;;;9.48;100.00;101020.56;7390624;19;20021;-58
2022/08/07 06:36:27;;;;;;;1.52;1.30;;;;;;;9.58;100.00;101022.25;7390531;19;20014;-58
2022/08/07 06:38:57;;;;;;;6.60;1.67;;;;;;;9.67;100.00;101017.63;7389497;19;20014;-58
2022/08/07 06:41:30;;;;;;;0.80;0.75;;;;;;;9.78;100.00;101018.09;7389628;19;20007;-58
2022/08/07 06:43:57;;;;;;;1.80;0.63;;;;;;;9.87;100.00;101020.22;7388470;19;20542;-58
2022/08/07 06:46:25;;;;;;;0.70;0.70;;;;;;;10.00;100.00;101018.25;7391048;19;20025;-58
2022/08/07 06:48:52;;;;;;;0.30;0.30;;;;;;;10.09;100.00;101018.34;7389137;19;20018;-57
2022/08/07 06:51:26;;;;;;;1.05;0.45;;;;;;;10.24;100.00;101011.16;7388921;19;20348;-58
2022/08/07 06:53:56;;;;;;;1.23;0.90;;;;;;;10.35;100.00;101014.38;7388349;19;20014;-58
2022/08/07 06:59:41;;;;;;;2.08;0.65;;;;;;;10.59;100.00;101021.16;7389102;19;20017;-58
2022/08/07 07:02:14;;;;;;;0.80;0.80;;;;;;;10.75;100.00;101022.25;7388055;19;20022;-58
2022/08/07 07:04:43;;;;;;;7.47;1.85;;;;;;;10.84;100.00;101014.00;7387587;19;20014;-58
2022/08/07 07:07:10;;;;;;;1.65;0.50;;;;;;;10.93;100.00;101028.03;7391062;19;20014;-58
2022/08/07 07:09:37;;;;;;;1.23;0.68;;;;;;;11.04;100.00;101020.09;7387524;19;20041;-58
2022/08/07 07:12:06;;;;;;;3.42;0.65;;;;;;;11.16;100.00;101025.63;7392649;19;20097;-58
2022/08/07 07:14:44;;;;;;;1.98;0.47;;;;;;;11.27;100.00;101019.66;7389637;19;20391;-58
2022/08/07 07:17:26;;;;;;;2.17;0.77;;;;;;;11.38;100.00;101022.84;7390271;19;20014;-59
2022/08/07 07:19:56;;;;;;;0.65;0.45;;;;;;;11.47;100.00;101022.16;7389579;19;20010;-58
2022/08/07 07:22:24;;;;;;;0.40;0.40;;;;;;;11.58;100.00;101020.53;7389975;19;20031;-58
2022/08/07 07:24:51;;;;;;;3.53;0.50;;;;;;;11.67;100.00;101026.22;7388639;19;20018;-58
2022/08/07 07:27:23;;;;;;;4.05;0.65;;;;;;;11.73;100.00;101018.81;7392223;19;20007;-58
2022/08/07 07:29:55;;;;;;;1.63;0.93;;;;;;;11.85;100.00;101023.53;7388280;19;20040;-59
2022/08/07 07:32:22;;;;;;;1.00;0.85;;;;;;;11.93;100.00;101022.03;7389235;19;20015;-58
2022/08/07 07:34:52;;;;;;;2.92;0.70;;;;;;;11.99;100.00;101023.00;7389476;19;20018;-58
2022/08/07 07:37:21;;;;;;;0.65;0.50;;;;;;;12.10;100.00;101023.38;7391901;19;20007;-58
2022/08/07 07:39:48;;;;;;;2.13;0.90;;;;;;;12.18;100.00;101023.88;7388809;19;20010;-58
2022/08/07 07:42:16;;;;;;;0.57;0.52;;;;;;;12.25;100.00;101022.81;7390216;19;20030;-58
2022/08/07 07:44:45;;;;;;;0.20;0.10;;;;;;;12.26;100.00;101021.59;7386639;19;20010;-58
2022/08/07 07:47:14;;;;;;;2.78;0.47;;;;;;;12.30;100.00;101022.22;7391508;19;20018;-58
2022/08/07 07:49:42;;;;;;;0.88;0.55;;;;;;;12.43;100.00;101025.69;7388311;19;20015;-58
2022/08/07 07:52:11;;;;;;;5.28;0.50;;;;;;;12.54;100.00;101023.25;7388600;19;20007;-57
2022/08/07 07:54:39;;;;;;;1.42;0.45;;;;;;;12.61;100.00;101015.34;7388790;19;20010;-57
2022/08/07 07:57:07;;;;;;;0.45;0.30;;;;;;;12.73;100.00;101017.22;7393496;19;20434;-59
2022/08/07 07:59:37;;;;;;;1.48;0.38;;;;;;;12.86;100.00;101005.94;7393899;19;20015;-59
2022/08/07 08:02:04;;;;;;;1.65;0.60;;;;;;;12.98;100.00;101007.03;7392944;19;20010;-60
2022/08/07 08:04:34;;;;;;;0.63;0.50;;;;;;;13.07;100.00;101002.28;7393108;19;20018;-60
2022/08/07 08:07:01;;;;;;;1.80;0.57;;;;;;;13.27;100.00;101005.41;7395867;19;20043;-60
2022/08/07 08:09:30;;;;;;;1.63;0.30;;;;;;;13.42;100.00;101006.31;7397690;19;20329;-60
2022/08/07 08:11:58;;;;;;;0.25;0.22;;;;;;;13.48;100.00;101004.44;7397624;19;20015;-60
2022/08/07 08:14:24;;;;;;;1.67;0.32;;;;;;;13.56;100.00;101011.28;7395776;19;20015;-60
2022/08/07 08:16:51;;;;;;;2.55;0.43;;;;;;;13.58;100.00;101008.78;7397256;19;20375;-60
2022/08/07 08:19:23;;;;;;;0.93;0.55;;;;;;;13.62;100.00;101008.66;7395672;19;20006;-60
2022/08/07 08:27:33;;;;;;;1.02;0.75;;;;;;;13.92;100.00;100992.88;7398028;19;20014;-60
2022/08/07 08:30:10;;;;;;;;;;;;;;;14.14;100.00;100987.81;7394571;19;20019;-58
2022/08/07 08:32:40;;;;;;;4.93;0.98;;;;;;;14.45;100.00;100996.72;7391965;19;19915;-60
2022/08/07 08:35:13;;;;;;;0.30;0.30;;;;;;;14.65;100.00;100999.75;7392057;19;20010;-60
2022/08/07 08:37:42;;;;;;;0.38;0.38;;;;;;;14.75;100.00;100992.81;7395610;19;20361;-60
2022/08/07 08:40:14;;;;;;;0.55;0.52;;;;;;;14.86;100.00;100993.06;7390003;19;20011;-60
2022/08/07 08:43:16;;;;;;;2.35;0.75;;;;;;;15.04;100.00;100981.72;7395757;19;20014;-60
2022/08/07 08:46:02;;;;;;;0.80;0.20;;;;;;;15.27;100.00;100976.56;7387800;19;20062;-60
2022/08/07 08:48:34;;;;;;;0.45;0.30;;;;;;;15.39;100.00;100972.72;7390580;19;20015;-60
2022/08/07 08:51:07;;;;;;;3.35;0.40;;;;;;;15.51;100.00;100961.22;7391252;19;20536;-60
2022/08/07 08:53:42;;;;;;;1.30;0.40;;;;;;;15.69;100.00;100965.88;7393956;19;20045;-60
2022/08/07 08:56:13;;;;;;;0.22;0.17;;;;;;;15.79;100.00;100962.50;7394493;19;20082;-60
2022/08/07 08:59:07;;;;;;;2.03;0.20;;;;;;;15.79;100.00;100967.34;7392800;19;20022;-60
2022/08/07 09:02:01;;;;;;;1.08;0.55;;;;;;;15.86;100.00;100966.94;7392263;19;20014;-60
2022/08/07 09:04:50;;;;;;;3.30;0.32;;;;;;;16.03;100.00;100956.75;7392337;19;20748;-60
2022/08/07 09:07:42;;;;;;;1.48;0.30;;;;;;;16.06;100.00;100964.22;7396357;19;20014;-60
2022/08/07 09:10:23;;;;;;;4.25;0.40;;;;;;;16.04;100.00;100965.97;7395927;19;20014;-60
2022/08/07 09:13:09;;;;;;;1.05;0.20;;;;;;;16.03;100.00;100965.19;7397123;19;20028;-60
2022/08/07 09:15:38;;;;;;;0.55;0.55;;;;;;;16.05;100.00;100973.91;7395492;19;20333;-60
2022/08/07 09:18:15;;;;;;;0.68;0.10;;;;;;;16.09;100.00;100971.66;7395433;19;20009;-60
2022/08/07 09:20:53;;;;;;;0.30;0.10;;;;;;;16.01;100.00;100967.72;7393805;19;20010;-59
2022/08/07 09:23:32;;;;;;;0.17;0.15;;;;;;;16.04;100.00;100975.19;7393069;19;20015;-60
2022/08/07 09:26:37;;;;;;;1.75;0.30;;;;;;;16.20;100.00;100973.91;7393503;19;20014;-59
2022/08/07 09:29:28;;;;;;;1.23;0.10;;;;;;;16.36;100.00;100976.97;7393644;19;20007;-59
2022/08/07 09:32:05;;;;;;;2.10;0.45;;;;;;;16.58;100.00;100982.19;7392854;19;20638;-60
2022/08/07 09:34:57;;;;;;;0.63;0.35;;;;;;;16.82;100.00;100968.69;7393431;19;20505;-60
2022/08/07 09:37:50;;;;;;;1.25;0.15;;;;;;;17.11;100.00;100967.75;7394091;19;20026;-60
2022/08/07 09:40:41;;;;;;;0.20;0.10;;;;;;;17.56;100.00;100958.59;7395959;19;20015;-60
2022/08/07 09:43:26;;;;;;;7.95;0.60;;;;;;;17.96;100.00;100963.28;7394596;19;20018;-61
2022/08/07 09:46:20;;;;;;;2.97;0.30;;;;;;;18.35;100.00;100960.75;7395342;19;20106;-60
2022/08/07 09:49:05;;;;;;;2.83;0.20;;;;;;;18.89;100.00;100951.09;7396057;19;20022;-61
2022/08/07 09:51:49;;;;;;;;;;;;;;;19.23;100.00;100949.19;7396751;19;20038;-60
2022/08/07 09:54:39;;;;;;;0.20;0.20;;;;;;;19.16;100.00;100949.66;7393331;19;19907;-61
2022/08/07 09:57:38;;;;;;;0.50;0.30;;;;;;;18.96;100.00;100947.78;7395203;19;20018;-61
2022/08/07 10:00:08;;;;;;;1.08;0.40;;;;;;;19.03;100.00;100946.53;7394626;19;20074;-61
2022/08/07 10:03:16;;;;;;;0.32;0.22;;;;;;;19.02;100.00;100942.94;7394947;19;20015;-61
2022/08/07 10:05:52;;;;;;;0.57;0.27;;;;;;;19.09;100.00;100950.91;7391889;19;20015;-60
2022/08/07 10:08:45;;;;;;;3.30;0.20;;;;;;;19.05;100.00;100958.88;7392814;19;20243;-60
2022/08/07 10:11:48;;;;;;;2.33;0.55;;;;;;;19.33;100.00;100948.44;7390196;19;20098;-61
2022/08/07 10:14:30;;;;;;;2.25;0.63;;;;;;;19.40;100.00;100942.31;7391079;19;20035;-61
2022/08/07 10:17:08;;;;;;;7.43;0.20;;;;;;;19.65;100.00;100938.50;7392446;19;20009;-60
2022/08/07 10:19:34;;;;;;;1.13;0.40;;;;;;;19.78;100.00;100942.88;7389128;19;20019;-60
2022/08/07 10:22:31;;;;;;;8.23;0.47;;;;;;;19.67;100.00;100933.09;7391593;19;20010;-60
2022/08/07 10:25:27;;;;;;;5.32;1.38;;;;;;;19.83;100.00;100950.59;7391392;19;20010;-60
2022/08/07 10:28:22;;;;;;;0.57;0.30;;;;;;;20.11;100.00;100942.88;7394955;19;20017;-60
2022/08/07 10:31:28;;;;;;;2.67;0.95;;;;;;;20.26;100.00;100937.75;7386061;19;20019;-60
2022/08/07 10:34:00;;;;;;;0.40;0.40;;;;;;;20.30;100.00;100935.41;7390181;19;20014;-60
2022/08/07 10:36:33;;;;;;;0.45;0.45;;;;;;;20.22;100.00;100940.06;7390045;19;20025;-61
2022/08/07 10:39:28;;;;;;;1.40;0.73;;;;;;;20.52;100.00;100932.53;7389977;19;20079;-61
2022/08/07 10:42:09;;;;;;;6.03;0.73;;;;;;;20.57;100.00;100928.94;7392416;19;20010;-61
2022/08/07 10:44:50;;;;;;;0.38;0.30;;;;;;;20.47;100.00;100930.50;7390768;19;20340;-61
2022/08/07 10:47:46;;;;;;;0.55;0.35;;;;;;;20.51;100.00;100936.66;7392763;19;20007;-61
2022/08/07 10:50:23;;;;;;;1.08;0.10;;;;;;;20.69;100.00;100933.25;7388768;19;20028;-61
2022/08/07 10:53:00;;;;;;;1.40;0.10;;;;;;;20.59;100.00;100936.91;7390168;19;20010;-61
2022/08/07 10:55:35;;;;;;;0.98;0.40;;;;;;;20.53;100.00;100939.72;7390474;19;20010;-62
2022/08/07 10:58:14;;;;;;;0.32;0.25;;;;;;;20.69;100.00;100933.25;7394006;19;20122;-61
2022/08/07 11:00:59;;;;;;;0.73;0.47;;;;;;;21.24;100.00;100940.00;7390549;19;20014;-61
2022/08/07 11:03:36;;;;;;;0.50;0.47;;;;;;;21.31;100.00;100934.53;7388976;19;20101;-61
2022/08/07 11:06:40;;;;;;;7.57;0.75;;;;;;;21.25;100.00;100933.81;7389714;19;20356;-62
2022/08/07 11:09:13;;;;;;;0.40;0.30;;;;;;;21.18;100.00;100922.28;7391118;19;20111;-63
2022/08/07 11:11:47;;;;;;;0.30;0.30;;;;;;;21.14;100.00;100919.69;7391867;19;20015;-61
2022/08/07 11:14:25;;;;;;;0.70;0.13;;;;;;;21.23;100.00;100919.38;7389777;19;20011;-62
2022/08/07 11:16:58;;;;;;;1.55;0.63;;;;;;;21.35;100.00;100922.94;7391409;19;20018;-61
2022/08/07 11:19:54;;;;;;;1.00;0.35;;;;;;;21.26;100.00;100921.19;7387972;19;20010;-61
2022/08/07 11:22:33;;;;;;;0.50;0.20;;;;;;;21.42;100.00;100928.06;7389767;19;20479;-60
2022/08/07 11:25:10;;;;;;;1.10;0.10;;;;;;;21.43;100.00;100923.91;7388554;19;20014;-61
2022/08/07 11:27:49;;;;;;;0.55;0.20;;;;;;;21.63;100.00;100923.53;7392202;19;20034;-61
2022/08/07 11:30:23;;;;;;;0.55;0.40;;;;;;;21.81;100.00;100917.19;7391269;19;20015;-61
2022/08/07 11:33:03;;;;;;;1.35;0.65;;;;;;;21.71;100.00;100921.66;7396759;19;20014;-62
2022/08/07 11:35:48;;;;;;;0.40;0.32;;;;;;;21.83;100.00;100923.13;7395300;19;20007;-61
2022/08/07 11:38:27;;;;;;;0.70;0.32;;;;;;;22.02;100.00;100912.66;7393362;19;20006;-62
2022/08/07 11:41:10;;;;;;;2.95;0.68;;;;;;;21.99;100.00;100919.38;7396235;19;20010;-61
2022/08/07 11:44:10;;;;;;;5.35;0.88;;;;;;;21.99;100.00;100919.38;7395757;19;20078;-62
2022/08/07 11:46:54;;;;;;;4.57;0.43;;;;;;;22.10;100.00;100907.94;7395402;19;20015;-62
2022/08/07 11:49:48;;;;;;;1.35;0.22;;;;;;;22.27;100.00;100914.22;7393859;19;20573;-62
2022/08/07 11:52:46;;;;;;;0.32;0.30;;;;;;;22.27;100.00;100910.59;7394889;19;20006;-61
2022/08/07 11:55:33;;;;;;;1.40;0.20;;;;;;;22.23;100.00;100910.91;7394741;19;20026;-61
2022/08/07 11:58:35;;;;;;;0.40;0.30;;;;;;;22.30;100.00;100910.31;7399877;19;20353;-62
2022/08/07 12:01:52;;;;;;;0.43;0.30;;;;;;;22.33;100.00;100906.41;7394671;19;20014;-61